Time;durP1;ratioP1;P1;durP2;ratioP2;P2;SDS_P1;SDS_P2;PMS_P1;PMS_P2;Temp;Humidity;BMP_temperature;BMP_pressure;BME280_temperature;BME280_humidity;BME280_pressure;Samples;Min_cycle;Max_cycle;Signal;HPM_P1;HPM_P2
2023/10/04 00:00:40;;;;;;;1.50;0.60;;;;;;;15.22;73.41;102534.63;4976464;28;96569;-27
2023/10/04 00:03:05;;;;;;;2.60;0.85;;;;;;;15.23;73.41;102539.13;4976460;28;96830;-28
2023/10/04 00:05:31;;;;;;;6.70;1.30;;;;;;;15.18;73.33;102543.06;4975666;28;99412;-27
2023/10/04 00:07:56;;;;;;;5.00;0.90;;;;;;;15.18;73.76;102541.22;4974481;28;99241;-28
2023/10/04 00:10:23;;;;;;;2.85;1.00;;;;;;;15.12;73.48;102536.09;4975847;28;96431;-28
2023/10/04 00:12:49;;;;;;;1.02;0.50;;;;;;;15.21;73.20;102545.63;4974750;28;96862;-28
2023/10/04 00:15:14;;;;;;;3.47;0.93;;;;;;;15.20;73.49;102552.03;4975409;28;99498;-27
2023/10/04 00:17:42;;;;;;;1.02;0.55;;;;;;;15.19;73.21;102567.53;4975595;28;99186;-27
2023/10/04 00:20:10;;;;;;;2.67;1.00;;;;;;;15.18;73.63;102554.88;4974678;28;96571;-27
2023/10/04 00:22:39;;;;;;;1.00;0.50;;;;;;;15.18;73.55;102556.69;4975470;28;96833;-27
2023/10/04 00:25:08;;;;;;;2.78;0.88;;;;;;;15.12;73.60;102547.00;4973865;28;101844;-28
2023/10/04 00:27:34;;;;;;;4.43;1.08;;;;;;;15.12;73.89;102555.19;4974343;28;99036;-27
2023/10/04 00:29:59;;;;;;;3.00;0.98;;;;;;;15.15;73.61;102556.88;4974516;28;96614;-27
2023/10/04 00:32:26;;;;;;;1.17;0.50;;;;;;;15.15;73.69;102557.75;4975890;28;96758;-27
2023/10/04 00:34:52;;;;;;;1.63;0.68;;;;;;;15.10;73.79;102556.25;4974745;28;99346;-28
2023/10/04 00:37:18;;;;;;;1.67;0.70;;;;;;;15.12;73.70;102562.50;4974044;28;100648;-27
2023/10/04 00:39:43;;;;;;;4.72;0.80;;;;;;;15.07;73.67;102558.16;4975719;28;96765;-28
2023/10/04 00:42:09;;;;;;;1.35;0.70;;;;;;;15.08;73.97;102557.19;4975590;28;96925;-27
2023/10/04 00:44:35;;;;;;;2.22;0.75;;;;;;;15.08;74.09;102567.22;4974658;28;98107;-28
2023/10/04 00:47:05;;;;;;;1.65;0.57;;;;;;;15.10;73.94;102572.63;4974041;28;101279;-28
2023/10/04 00:49:33;;;;;;;1.08;0.57;;;;;;;15.08;73.75;102575.41;4974357;28;96690;-28
2023/10/04 00:52:00;;;;;;;3.20;0.65;;;;;;;15.09;73.62;102579.94;4975821;28;96777;-28
2023/10/04 00:54:26;;;;;;;2.42;0.80;;;;;;;15.06;73.59;102582.78;4973736;28;101048;-31
2023/10/04 00:56:52;;;;;;;1.85;0.60;;;;;;;15.07;73.91;102584.59;4975239;28;97746;-28
2023/10/04 00:59:17;;;;;;;3.35;0.88;;;;;;;15.06;73.88;102580.06;4973601;28;96728;-27
2023/10/04 01:01:43;;;;;;;1.58;0.75;;;;;;;15.04;73.91;102582.00;4975616;28;96815;-28
2023/10/04 01:04:10;;;;;;;3.90;0.80;;;;;;;15.03;74.18;102574.78;4973590;28;101529;-28
2023/10/04 01:06:36;;;;;;;1.75;0.70;;;;;;;15.02;73.99;102576.63;4973580;28;100630;-28
2023/10/04 01:09:01;;;;;;;1.80;0.70;;;;;;;15.01;74.09;102583.03;4975154;28;96443;-27
2023/10/04 01:11:33;;;;;;;1.25;0.60;;;;;;;14.99;74.30;102579.53;4975244;28;96894;-28
2023/10/04 01:14:09;;;;;;;5.95;0.98;;;;;;;15.01;74.17;102591.22;4973556;28;101098;-28
2023/10/04 01:16:41;;;;;;;2.67;0.65;;;;;;;15.04;74.19;102585.63;4975297;28;99209;-28
2023/10/04 01:19:07;;;;;;;1.73;0.60;;;;;;;15.02;74.26;102589.41;4974062;28;96602;-29
2023/10/04 01:21:33;;;;;;;2.88;0.60;;;;;;;15.01;74.12;102583.03;4973834;28;96629;-27
2023/10/04 01:23:58;;;;;;;1.58;0.80;;;;;;;14.99;74.05;102585.00;4972813;28;99549;-28
2023/10/04 01:26:26;;;;;;;7.30;1.08;;;;;;;15.02;74.14;102584.81;4975149;28;97308;-28
2023/10/04 01:28:52;;;;;;;4.18;0.80;;;;;;;15.05;74.28;102591.97;4973617;28;96647;-27
2023/10/04 01:31:19;;;;;;;2.60;0.98;;;;;;;15.06;74.37;102593.72;4973656;28;96959;-28
2023/10/04 01:33:44;;;;;;;4.45;0.80;;;;;;;15.03;74.48;102580.25;4973289;28;101095;-28
2023/10/04 01:36:09;;;;;;;3.40;0.90;;;;;;;15.04;74.67;102591.09;4974372;28;98833;-27
2023/10/04 01:38:35;;;;;;;2.28;0.77;;;;;;;14.99;74.76;102582.25;4974941;28;96576;-27
2023/10/04 01:41:01;;;;;;;1.67;0.68;;;;;;;15.00;74.87;102589.47;4974988;28;96852;-27
2023/10/04 01:43:29;;;;;;;2.63;0.77;;;;;;;14.93;75.04;102579.84;4972270;28;101291;-27
2023/10/04 01:45:57;;;;;;;4.65;0.80;;;;;;;15.02;74.82;102592.13;4974517;28;99112;-28
2023/10/04 01:48:27;;;;;;;2.58;0.75;;;;;;;15.03;74.95;102594.75;4972938;28;96624;-27
2023/10/04 01:50:53;;;;;;;1.42;0.73;;;;;;;14.99;75.18;102592.28;4973144;28;96839;-28
2023/10/04 01:53:24;;;;;;;1.98;0.98;;;;;;;14.99;75.35;102592.28;4974801;28;97886;-27
2023/10/04 01:55:49;;;;;;;2.37;1.10;;;;;;;14.96;75.10;102579.66;4974475;28;99267;-28
2023/10/04 01:58:18;;;;;;;5.47;0.90;;;;;;;14.98;74.96;102580.47;4975149;28;96570;-27
2023/10/04 02:00:43;;;;;;;3.67;1.00;;;;;;;14.95;75.16;102571.59;4974982;28;96826;-27
2023/10/04 02:03:09;;;;;;;2.65;0.77;;;;;;;14.93;75.24;102573.50;4974488;28;97448;-27
2023/10/04 02:05:37;;;;;;;3.92;0.88;;;;;;;14.93;75.27;102578.97;4974369;28;99085;-27
2023/10/04 02:08:07;;;;;;;4.90;0.88;;;;;;;14.85;75.33;102568.47;4974547;28;96674;-27
2023/10/04 02:10:36;;;;;;;2.38;0.93;;;;;;;14.84;75.40;102564.81;4974644;28;96751;-27
2023/10/04 02:13:11;;;;;;;1.23;0.57;;;;;;;14.90;75.81;102584.56;4972394;28;100941;-27
2023/10/04 02:15:38;;;;;;;4.68;1.23;;;;;;;14.79;75.64;102574.22;4974407;28;97888;-27
2023/10/04 02:18:04;;;;;;;0.57;0.40;;;;;;;14.83;75.91;102582.16;4973025;28;96642;-28
2023/10/04 02:20:33;;;;;;;3.45;0.73;;;;;;;14.82;75.95;102584.97;4973105;28;96896;-27
2023/10/04 02:22:58;;;;;;;2.53;0.77;;;;;;;14.82;76.05;102583.09;4972795;28;101410;-28
2023/10/04 02:25:24;;;;;;;2.42;0.75;;;;;;;14.78;76.19;102588.84;4974073;28;99366;-27
2023/10/04 02:27:55;;;;;;;6.80;0.98;;;;;;;14.73;75.99;102582.69;4973056;28;96583;-28
2023/10/04 02:30:26;;;;;;;1.77;0.77;;;;;;;14.71;76.22;102588.25;4973363;28;96801;-28
2023/10/04 02:32:52;;;;;;;2.80;0.73;;;;;;;14.71;76.42;102606.47;4972807;28;100789;-28
2023/10/04 02:35:25;;;;;;;2.72;0.68;;;;;;;14.68;76.05;102599.31;4972526;28;100987;-28
2023/10/04 02:37:54;;;;;;;2.33;0.60;;;;;;;14.67;76.06;102599.41;4972565;28;96680;-28
2023/10/04 02:40:27;;;;;;;0.93;0.70;;;;;;;14.72;76.39;102610.97;4972870;28;96862;-28
2023/10/04 02:42:56;;;;;;;3.60;0.85;;;;;;;14.66;75.64;102606.72;4973738;28;99949;-28
2023/10/04 02:45:24;;;;;;;3.85;0.60;;;;;;;14.58;76.11;102604.34;4973534;28;99469;-29
2023/10/04 02:47:52;;;;;;;5.40;1.10;;;;;;;14.63;76.43;102617.75;4975495;28;96740;-27
2023/10/04 02:50:19;;;;;;;1.38;0.40;;;;;;;14.64;76.36;102628.59;4976065;28;96883;-27
2023/10/04 02:52:51;;;;;;;4.10;0.85;;;;;;;14.62;76.48;102621.44;4975683;28;101326;-27
2023/10/04 02:55:18;;;;;;;1.15;0.57;;;;;;;14.66;76.14;102628.53;4975832;28;101109;-28
2023/10/04 02:57:45;;;;;;;1.67;0.65;;;;;;;14.64;76.49;102625.00;4975995;28;96747;-27
2023/10/04 03:00:16;;;;;;;2.00;0.65;;;;;;;14.66;76.50;102631.25;4975867;28;96818;-29
2023/10/04 03:02:50;;;;;;;3.08;0.90;;;;;;;14.63;76.44;102623.19;4975097;28;101898;-27
2023/10/04 03:05:20;;;;;;;1.48;0.73;;;;;;;14.62;76.46;102624.19;4976985;28;97882;-27
2023/10/04 03:07:50;;;;;;;3.45;0.77;;;;;;;14.57;76.44;102618.06;4977120;28;96642;-27
2023/10/04 03:10:23;;;;;;;1.58;0.90;;;;;;;14.52;76.57;102611.94;4977220;28;96738;-27
2023/10/04 03:12:54;;;;;;;1.85;0.75;;;;;;;14.49;76.81;102609.34;4975524;28;101311;-28
2023/10/04 03:15:23;;;;;;;1.77;0.55;;;;;;;14.51;76.84;102619.22;4976530;28;98424;-27
2023/10/04 03:17:53;;;;;;;5.95;0.90;;;;;;;14.53;76.63;102608.25;4976958;28;96658;-27
2023/10/04 03:20:23;;;;;;;2.90;0.47;;;;;;;14.54;76.76;102610.03;4977348;28;96807;-27
2023/10/04 03:22:56;;;;;;;3.10;1.20;;;;;;;14.54;76.37;102607.28;4976636;28;98135;-27
2023/10/04 03:25:26;;;;;;;1.40;0.82;;;;;;;14.51;76.50;102594.66;4976429;28;98399;-27
2023/10/04 03:27:52;;;;;;;3.40;0.68;;;;;;;14.50;76.35;102600.22;4976315;28;96610;-29
2023/10/04 03:30:18;;;;;;;4.25;0.95;;;;;;;14.48;76.61;102599.41;4975528;28;96866;-27
2023/10/04 03:32:49;;;;;;;5.82;1.15;;;;;;;14.52;76.68;102598.31;4976339;28;99808;-28
2023/10/04 03:35:14;;;;;;;4.13;0.98;;;;;;;14.48;76.66;102583.06;4974976;28;101881;-28
2023/10/04 03:37:48;;;;;;;1.48;0.60;;;;;;;14.53;76.56;102595.47;4976875;28;96605;-28
2023/10/04 03:40:15;;;;;;;2.75;1.05;;;;;;;14.49;76.73;102590.25;4974994;28;96738;-28
2023/10/04 03:42:45;;;;;;;2.33;0.82;;;;;;;14.48;76.63;102600.28;4976255;28;99844;-28
2023/10/04 03:45:11;;;;;;;3.53;1.00;;;;;;;14.41;76.90;102596.97;4974291;28;101249;-27
2023/10/04 03:47:38;;;;;;;2.20;0.70;;;;;;;14.42;76.89;102603.34;4976248;28;96676;-27
2023/10/04 03:50:09;;;;;;;6.55;1.25;;;;;;;14.44;77.00;102606.84;4975092;28;96684;-27
2023/10/04 03:52:34;;;;;;;6.63;0.77;;;;;;;14.47;77.17;102605.81;4975644;28;99346;-29
2023/10/04 03:55:00;;;;;;;3.22;0.77;;;;;;;14.46;77.13;102607.66;4976246;28;97844;-28
2023/10/04 03:57:25;;;;;;;3.50;1.08;;;;;;;14.40;77.41;102594.34;4975577;28;96510;-28
2023/10/04 03:59:51;;;;;;;3.05;1.05;;;;;;;14.37;77.22;102589.94;4975930;28;96630;-28
2023/10/04 04:02:16;;;;;;;3.88;0.70;;;;;;;14.35;77.50;102597.28;4975910;28;98092;-27
2023/10/04 04:04:42;;;;;;;3.92;1.20;;;;;;;14.34;77.48;102602.81;4976050;28;97790;-28
2023/10/04 04:07:07;;;;;;;2.33;0.88;;;;;;;14.29;77.61;102596.72;4976351;28;96676;-28
2023/10/04 04:09:33;;;;;;;3.05;1.15;;;;;;;14.28;77.83;102594.91;4976785;28;96758;-27
2023/10/04 04:11:58;;;;;;;6.18;1.60;;;;;;;14.27;77.81;102587.72;4975810;28;98960;-27
2023/10/04 04:14:23;;;;;;;4.68;1.27;;;;;;;14.17;77.97;102582.72;4976068;28;97311;-28
2023/10/04 04:16:51;;;;;;;6.85;1.75;;;;;;;14.18;78.02;102581.78;4975540;28;96693;-28
2023/10/04 04:19:19;;;;;;;5.72;1.92;;;;;;;14.14;77.94;102573.81;4975784;28;96807;-27
2023/10/04 04:21:45;;;;;;;5.53;1.33;;;;;;;14.12;77.96;102573.88;4974281;28;101123;-28
2023/10/04 04:24:10;;;;;;;2.83;1.17;;;;;;;14.08;78.08;102569.53;4975924;28;97809;-27
2023/10/04 04:26:35;;;;;;;7.07;1.20;;;;;;;14.06;78.37;102579.63;4976008;28;96509;-27
2023/10/04 04:29:01;;;;;;;3.55;1.27;;;;;;;14.07;78.62;102581.41;4975690;28;96819;-28
2023/10/04 04:31:26;;;;;;;2.85;1.20;;;;;;;14.03;78.72;102587.94;4975420;28;99385;-27
2023/10/04 04:33:53;;;;;;;2.78;1.25;;;;;;;14.06;78.66;102608.72;4975852;28;99137;-29
2023/10/04 04:36:28;;;;;;;2.90;0.65;;;;;;;14.00;78.71;102609.91;4974562;28;96737;-27
2023/10/04 04:38:55;;;;;;;1.92;0.82;;;;;;;13.94;79.05;102602.91;4974262;28;96711;-28
2023/10/04 04:41:25;;;;;;;3.00;1.17;;;;;;;13.94;79.23;102602.91;4974573;28;98109;-27
2023/10/04 04:43:51;;;;;;;1.08;0.50;;;;;;;13.92;79.26;102612.09;4974252;28;97854;-28
2023/10/04 04:46:18;;;;;;;4.72;0.73;;;;;;;13.89;79.06;102606.81;4974356;28;96763;-27
2023/10/04 04:48:45;;;;;;;2.13;0.82;;;;;;;13.88;79.42;102624.13;4974252;28;96884;-27
2023/10/04 04:53:39;;;;;;;5.53;0.85;;;;;;;13.86;79.99;102618.72;4975446;28;97626;-28
2023/10/04 04:56:06;;;;;;;2.70;0.90;;;;;;;13.85;80.12;102619.69;4974046;28;96674;-27
2023/10/04 04:58:31;;;;;;;2.22;1.05;;;;;;;13.77;80.07;102611.84;4974596;28;96840;-27
2023/10/04 05:01:00;;;;;;;2.65;0.75;;;;;;;13.80;80.02;102611.75;4975364;28;97369;-29
2023/10/04 05:03:26;;;;;;;4.97;1.08;;;;;;;13.73;80.08;102617.53;4975018;28;98090;-29
2023/10/04 05:05:52;;;;;;;3.10;0.80;;;;;;;13.75;80.12;102629.22;4973744;28;96554;-28
2023/10/04 05:08:18;;;;;;;2.10;0.70;;;;;;;13.75;80.50;102632.88;4973857;28;96892;-28
2023/10/04 05:10:44;;;;;;;4.53;1.20;;;;;;;13.74;80.67;102633.81;4974815;28;97901;-27
2023/10/04 05:13:14;;;;;;;2.60;0.80;;;;;;;13.75;81.10;102640.13;4973166;28;100733;-28
2023/10/04 05:15:42;;;;;;;5.57;1.02;;;;;;;13.70;80.78;102637.63;4974489;28;97072;-27
2023/10/04 05:18:15;;;;;;;3.22;0.88;;;;;;;13.71;80.82;102638.53;4972566;28;96619;-31
2023/10/04 05:20:41;;;;;;;4.55;1.02;;;;;;;13.73;80.82;102645.66;4973439;28;99474;-27
2023/10/04 05:23:09;;;;;;;2.72;0.85;;;;;;;13.72;81.07;102648.44;4973752;28;101197;-27
2023/10/04 05:25:34;;;;;;;4.80;1.23;;;;;;;13.71;80.77;102649.41;4973556;28;97038;-29
2023/10/04 05:28:11;;;;;;;0.90;0.40;;;;;;;13.72;81.05;102646.59;4975301;28;96823;-27
2023/10/04 05:30:38;;;;;;;2.08;0.82;;;;;;;13.70;81.24;102650.34;4974156;28;100301;-27
2023/10/04 05:33:06;;;;;;;3.83;1.05;;;;;;;13.65;81.75;102649.69;4973341;28;101381;-27
2023/10/04 05:35:33;;;;;;;3.80;0.93;;;;;;;13.59;81.69;102635.41;4973597;28;96615;-28
2023/10/04 05:37:59;;;;;;;4.47;1.10;;;;;;;13.62;82.01;102647.97;4973539;28;96898;-28
2023/10/04 05:40:27;;;;;;;2.65;1.05;;;;;;;13.62;81.85;102653.44;4974287;28;99689;-27
2023/10/04 05:42:53;;;;;;;1.00;0.57;;;;;;;13.58;82.03;102647.22;4973207;28;101507;-31
2023/10/04 05:45:22;;;;;;;3.03;1.02;;;;;;;13.55;82.16;102662.84;4973220;28;96654;-27
2023/10/04 05:47:50;;;;;;;2.38;0.68;;;;;;;13.55;82.24;102660.97;4973855;28;96737;-27
2023/10/04 05:50:23;;;;;;;3.35;1.30;;;;;;;13.54;82.50;102663.81;4974448;28;98019;-31
2023/10/04 05:52:53;;;;;;;1.60;0.80;;;;;;;13.49;82.70;102654.91;4974514;28;99197;-28
2023/10/04 05:55:20;;;;;;;4.63;0.90;;;;;;;13.45;82.73;102653.31;4972942;28;96588;-27
2023/10/04 05:57:50;;;;;;;1.58;0.80;;;;;;;13.45;83.45;102670.53;4973281;28;96868;-28
2023/10/04 06:03:06;;;;;;;2.50;0.95;;;;;;;13.49;83.45;102660.38;4974667;28;96989;-27
2023/10/04 06:05:35;;;;;;;3.38;1.00;;;;;;;13.48;83.58;102661.34;4974635;28;96559;-28
2023/10/04 06:10:57;;;;;;;4.00;1.08;;;;;;;13.54;84.19;102680.13;4968619;28;99776;-27
2023/10/04 06:13:22;;;;;;;4.32;0.82;;;;;;;13.57;84.50;102686.31;4974588;28;97292;-27
2023/10/04 06:15:49;;;;;;;1.42;0.98;;;;;;;13.50;84.63;102676.66;4974462;28;96505;-28
2023/10/04 06:18:19;;;;;;;5.65;1.02;;;;;;;13.60;84.28;102683.44;4973308;28;96857;-27
2023/10/04 06:20:45;;;;;;;3.40;1.02;;;;;;;13.62;84.26;102682.50;4972461;28;101127;-28
2023/10/04 06:23:14;;;;;;;3.03;0.95;;;;;;;13.66;84.25;102685.03;4975957;28;101329;-28
2023/10/04 06:25:42;;;;;;;1.92;1.10;;;;;;;13.67;84.69;102681.34;4976526;28;96570;-27
2023/10/04 06:28:09;;;;;;;3.05;0.93;;;;;;;13.60;84.82;102668.94;4976519;28;96877;-27
2023/10/04 06:30:35;;;;;;;4.05;0.95;;;;;;;13.64;85.06;102680.59;4959847;28;101285;-28
2023/10/04 06:33:06;;;;;;;8.80;1.48;;;;;;;13.65;85.19;102677.78;4976113;28;100904;-27
2023/10/04 06:35:32;;;;;;;2.90;0.80;;;;;;;13.67;85.49;102681.34;4976413;28;96563;-27
2023/10/04 06:38:06;;;;;;;4.32;1.42;;;;;;;13.72;84.63;102679.28;4976713;28;96875;-27
2023/10/04 06:40:32;;;;;;;3.15;1.00;;;;;;;13.76;84.46;102678.19;4976896;28;97946;-28
2023/10/04 06:42:59;;;;;;;3.17;0.82;;;;;;;13.84;85.18;102688.72;4975456;28;101552;-28
2023/10/04 06:45:26;;;;;;;3.88;1.17;;;;;;;13.87;84.83;102680.44;4975277;28;96627;-27
2023/10/04 06:47:56;;;;;;;5.45;0.85;;;;;;;13.94;84.85;102676.47;4976093;28;97005;-27
2023/10/04 06:50:28;;;;;;;3.60;1.27;;;;;;;13.94;85.95;102673.75;4975852;28;101406;-28
2023/10/04 06:52:54;;;;;;;3.97;0.80;;;;;;;14.01;86.22;102698.84;4975769;28;99028;-27
2023/10/04 06:55:20;;;;;;;3.75;1.15;;;;;;;14.00;85.19;102689.81;4976070;28;96593;-27
2023/10/04 06:57:47;;;;;;;2.58;0.80;;;;;;;14.06;86.23;102704.97;4977476;28;96863;-28
2023/10/04 07:00:20;;;;;;;2.17;0.95;;;;;;;14.06;85.45;102694.06;4975738;28;98992;-27
2023/10/04 07:02:54;;;;;;;5.25;1.00;;;;;;;14.14;85.10;102704.63;4975809;28;101358;-28
2023/10/04 07:05:20;;;;;;;12.20;1.52;;;;;;;14.16;85.02;102697.28;4977053;28;96888;-27
2023/10/04 07:07:51;;;;;;;3.63;1.17;;;;;;;14.21;85.03;102706.13;4977488;28;96869;-27
2023/10/04 07:10:20;;;;;;;3.00;1.07;;;;;;;14.21;86.25;102708.84;4976534;28;98104;-27
2023/10/04 07:12:46;;;;;;;4.70;1.20;;;;;;;14.14;86.19;102694.63;4976667;28;99178;-28
2023/10/04 07:15:15;;;;;;;2.50;1.05;;;;;;;14.21;85.12;102701.53;4975764;28;96839;-27
2023/10/04 07:17:41;;;;;;;5.10;0.80;;;;;;;14.28;85.36;102710.31;4976822;28;96852;-27
2023/10/04 07:20:08;;;;;;;3.67;1.17;;;;;;;14.35;85.99;102711.78;4976646;28;97678;-28
2023/10/04 07:22:36;;;;;;;5.47;1.20;;;;;;;14.45;85.58;102704.94;4976598;28;99293;-28
2023/10/04 07:25:02;;;;;;;6.50;1.40;;;;;;;14.49;85.35;102704.78;4975533;28;96537;-27
2023/10/04 07:27:27;;;;;;;1.63;0.82;;;;;;;14.65;85.59;102706.72;4975761;28;96787;-28
2023/10/04 07:29:53;;;;;;;5.82;1.00;;;;;;;14.78;84.27;102712.47;4976702;28;98301;-27
2023/10/04 07:32:20;;;;;;;5.95;1.50;;;;;;;14.82;84.93;102705.00;4974909;28;100720;-27
2023/10/04 07:34:45;;;;;;;2.97;0.90;;;;;;;14.80;85.18;102702.38;4974795;28;96580;-27
2023/10/04 07:37:10;;;;;;;4.82;1.05;;;;;;;14.82;84.82;102705.88;4976742;28;96815;-28
2023/10/04 07:39:37;;;;;;;2.97;0.95;;;;;;;14.82;85.64;102718.66;4976242;28;99304;-27
2023/10/04 07:42:02;;;;;;;4.50;1.25;;;;;;;14.79;85.48;102707.91;4974786;28;98761;-28
2023/10/04 07:44:30;;;;;;;5.18;1.20;;;;;;;14.84;86.08;102723.06;4976162;28;96817;-27
2023/10/04 07:46:59;;;;;;;5.10;1.35;;;;;;;14.91;85.42;102725.50;4975080;28;96885;-27
2023/10/04 07:49:24;;;;;;;2.90;1.08;;;;;;;14.92;86.34;102721.81;4974888;28;101098;-27
2023/10/04 07:51:50;;;;;;;3.92;0.82;;;;;;;15.02;85.22;102728.59;4976383;28;99234;-28
2023/10/04 07:54:18;;;;;;;4.20;1.20;;;;;;;15.10;85.19;102737.25;4976487;28;96562;-27
2023/10/04 07:56:44;;;;;;;1.98;0.93;;;;;;;15.11;85.18;102739.06;4974959;28;96892;-28
2023/10/04 07:59:10;;;;;;;5.20;1.08;;;;;;;15.03;85.11;102724.88;4974196;28;101112;-27
2023/10/04 08:01:39;;;;;;;5.88;1.13;;;;;;;15.07;85.84;102737.44;4975763;28;99377;-27
2023/10/04 08:04:04;;;;;;;2.67;1.15;;;;;;;15.07;84.92;102735.56;4976361;28;96538;-27
2023/10/04 08:06:30;;;;;;;5.03;1.55;;;;;;;15.15;85.41;102737.91;4976184;28;96813;-27
2023/10/04 08:08:55;;;;;;;5.15;1.35;;;;;;;15.25;85.40;102744.69;4975901;28;97893;-27
2023/10/04 08:11:21;;;;;;;5.75;0.95;;;;;;;15.25;84.83;102736.50;4976021;28;97851;-28
2023/10/04 08:13:46;;;;;;;5.30;1.20;;;;;;;15.35;84.71;102736.00;4975884;28;96498;-28
2023/10/04 08:16:13;;;;;;;3.85;1.20;;;;;;;15.43;84.93;102734.66;4976329;28;96777;-27
2023/10/04 08:18:39;;;;;;;3.42;0.65;;;;;;;15.50;84.81;102741.56;4975608;28;99547;-27
2023/10/04 08:21:06;;;;;;;5.47;1.50;;;;;;;15.46;84.86;102741.81;4975784;28;97298;-27
2023/10/04 08:23:32;;;;;;;4.72;1.05;;;;;;;15.54;84.75;102744.13;4974134;28;96605;-28
2023/10/04 08:25:58;;;;;;;6.18;1.33;;;;;;;15.62;84.34;102753.69;4974514;28;97014;-29
2023/10/04 08:28:23;;;;;;;1.30;0.70;;;;;;;15.72;83.33;102751.41;4975361;28;98859;-28
2023/10/04 08:30:51;;;;;;;1.40;0.70;;;;;;;15.83;84.01;102759.03;4973998;28;100716;-27
2023/10/04 08:33:19;;;;;;;7.35;0.93;;;;;;;15.76;83.43;102747.56;4975737;28;96508;-27
2023/10/04 08:35:45;;;;;;;3.47;1.20;;;;;;;15.78;82.86;102745.63;4974265;28;96928;-28
2023/10/04 08:38:10;;;;;;;3.90;1.13;;;;;;;15.74;83.13;102744.00;4974018;28;100840;-27
2023/10/04 08:40:39;;;;;;;5.35;1.27;;;;;;;15.77;83.53;102746.56;4975602;28;97314;-28
2023/10/04 08:43:06;;;;;;;5.90;1.05;;;;;;;15.79;83.08;102746.50;4975700;28;96796;-27
2023/10/04 08:45:34;;;;;;;6.13;1.88;;;;;;;15.84;83.65;102752.59;4973040;28;96995;-27
2023/10/04 08:48:00;;;;;;;2.40;0.88;;;;;;;15.86;83.34;102748.81;4974869;28;98938;-29
2023/10/04 08:50:29;;;;;;;2.90;1.10;;;;;;;15.91;83.29;102740.38;4973954;28;98874;-28
2023/10/04 08:53:05;;;;;;;1.73;0.80;;;;;;;15.96;82.87;102734.66;4974237;28;96489;-27
2023/10/04 08:55:41;;;;;;;2.20;1.30;;;;;;;16.10;83.20;102734.78;4979283;28;97422;-29
2023/10/04 08:58:07;;;;;;;3.78;1.35;;;;;;;16.14;82.86;102739.13;4994758;28;99400;-27
2023/10/04 09:00:35;;;;;;;5.20;1.20;;;;;;;16.24;82.78;102736.78;4993623;28;101492;-27
2023/10/04 09:03:04;;;;;;;5.20;1.20;;;;;;;16.20;82.33;102724.22;4994145;28;96668;-27
2023/10/04 09:05:33;;;;;;;1.52;0.82;;;;;;;16.30;82.72;102730.94;4995395;28;96833;-28
2023/10/04 09:07:58;;;;;;;3.60;1.05;;;;;;;16.37;82.34;102737.84;4994835;28;99589;-28
2023/10/04 09:10:24;;;;;;;5.60;1.10;;;;;;;16.42;82.35;102729.38;4993286;28;99466;-29
2023/10/04 09:12:49;;;;;;;8.82;1.60;;;;;;;16.48;82.00;102727.19;4994712;28;96499;-28
2023/10/04 09:15:16;;;;;;;5.03;0.98;;;;;;;16.53;81.83;102730.53;4994834;28;96888;-27
2023/10/04 09:17:47;;;;;;;3.97;1.55;;;;;;;16.54;81.34;102734.16;4993384;28;101569;-27
2023/10/04 09:20:16;;;;;;;4.18;1.30;;;;;;;16.64;81.26;102729.06;4976858;28;100961;-28
2023/10/04 09:22:43;;;;;;;7.32;1.42;;;;;;;16.59;81.33;102733.91;4993731;28;96716;-28
2023/10/04 09:25:09;;;;;;;6.90;1.42;;;;;;;16.68;81.10;102731.50;4993312;28;96891;-27
2023/10/04 09:27:36;;;;;;;4.32;1.42;;;;;;;16.66;80.76;102727.09;4993240;28;101056;-27
2023/10/04 09:30:19;;;;;;;4.53;1.30;;;;;;;16.66;80.96;102725.28;4994951;28;96962;-27
2023/10/04 09:32:44;;;;;;;6.10;1.08;;;;;;;16.77;80.55;102739.19;4993637;28;96693;-27
2023/10/04 09:35:10;;;;;;;8.15;1.88;;;;;;;16.81;80.49;102722.66;4994905;28;96777;-27
2023/10/04 09:37:35;;;;;;;6.32;1.40;;;;;;;16.82;80.85;102755.41;4993788;28;97924;-27
2023/10/04 09:40:08;;;;;;;5.15;1.23;;;;;;;16.60;80.71;102744.78;4994362;28;98794;-27
2023/10/04 09:42:53;;;;;;;6.00;2.03;;;;;;;16.51;81.14;102745.28;4993032;28;96853;-28
2023/10/04 09:45:26;;;;;;;4.78;1.30;;;;;;;16.47;81.53;102743.69;4994272;28;96934;-27
2023/10/04 09:47:55;;;;;;;4.93;1.15;;;;;;;16.58;81.61;102745.81;4992714;28;101464;-27
2023/10/04 09:50:24;;;;;;;6.20;1.40;;;;;;;16.67;80.79;102723.41;4994590;28;97248;-28
2023/10/04 09:52:51;;;;;;;6.72;1.73;;;;;;;16.83;80.42;102729.81;4993238;28;96543;-28
2023/10/04 09:55:17;;;;;;;8.07;1.67;;;;;;;17.02;79.69;102725.97;4993538;28;96871;-28
2023/10/04 09:57:43;;;;;;;7.43;1.73;;;;;;;17.06;79.16;102730.31;4997063;28;97338;-28
2023/10/04 10:00:22;;;;;;;3.50;1.33;;;;;;;17.12;79.10;102738.16;4996460;28;100955;-27
2023/10/04 10:02:52;;;;;;;10.30;2.10;;;;;;;17.22;78.80;102739.38;4997477;28;96480;-28
2023/10/04 10:05:31;;;;;;;5.03;1.02;;;;;;;17.45;78.07;102731.63;4996594;28;96765;-27
2023/10/04 10:08:06;;;;;;;6.70;1.42;;;;;;;17.60;77.78;102717.88;4997631;28;98994;-28
2023/10/04 10:10:34;;;;;;;3.33;0.90;;;;;;;17.72;76.50;102735.44;4997777;28;97910;-28
2023/10/04 10:13:01;;;;;;;8.43;1.85;;;;;;;17.67;76.23;102732.09;4997439;28;96679;-27
2023/10/04 10:15:27;;;;;;;8.45;1.77;;;;;;;17.68;76.60;102725.63;4997890;28;96800;-29
2023/10/04 10:17:53;;;;;;;7.70;1.40;;;;;;;17.68;76.34;102722.00;4996828;28;99261;-28
2023/10/04 10:20:19;;;;;;;1.95;0.80;;;;;;;17.69;76.79;102730.16;4996359;28;100750;-27
2023/10/04 10:23:00;;;;;;;5.63;1.45;;;;;;;17.68;76.92;102732.97;4996523;28;96672;-27
2023/10/04 10:25:32;;;;;;;5.97;1.33;;;;;;;17.66;76.57;102730.31;4995916;28;97016;-27
2023/10/04 10:28:01;;;;;;;4.25;1.17;;;;;;;17.76;76.48;102741.63;4995582;28;97946;-28
2023/10/04 10:30:28;;;;;;;3.90;1.30;;;;;;;17.78;75.80;102735.06;4997308;28;97475;-28
2023/10/04 10:32:56;;;;;;;4.30;1.42;;;;;;;17.92;75.76;102736.09;4996260;28;96725;-27
2023/10/04 10:35:56;;;;;;;5.55;1.63;;;;;;;18.04;75.13;102740.78;4997386;28;96819;-28
2023/10/04 10:38:40;;;;;;;9.07;1.35;;;;;;;18.14;75.62;102722.81;4995896;28;101299;-27
2023/10/04 10:41:08;;;;;;;3.67;1.58;;;;;;;18.39;75.29;102726.69;4995460;28;100791;-27
2023/10/04 10:43:37;;;;;;;6.28;1.70;;;;;;;18.30;73.46;102722.69;4995675;28;96870;-28
2023/10/04 10:46:31;;;;;;;6.10;1.75;;;;;;;18.45;73.00;102724.44;4996319;28;96755;-27
2023/10/04 10:48:59;;;;;;;6.88;1.33;;;;;;;18.45;72.81;102723.56;4995698;28;101416;-27
2023/10/04 10:51:42;;;;;;;3.20;1.23;;;;;;;18.43;73.47;102720.03;4995601;28;98628;-28
2023/10/04 10:54:07;;;;;;;4.70;1.40;;;;;;;18.51;73.11;102728.66;4996704;28;96498;-27
2023/10/04 10:56:37;;;;;;;7.93;1.63;;;;;;;18.44;72.79;102721.78;4997112;28;96911;-28
2023/10/04 10:59:05;;;;;;;6.32;1.48;;;;;;;18.36;73.39;102727.78;4996816;28;98841;-28
2023/10/04 11:01:30;;;;;;;5.05;1.35;;;;;;;18.29;73.46;102723.66;4995524;28;100859;-28
2023/10/04 11:03:56;;;;;;;4.70;1.50;;;;;;;18.14;73.98;102717.31;4997023;28;96608;-27
2023/10/04 11:06:22;;;;;;;7.38;1.67;;;;;;;18.17;74.31;102714.38;4997227;28;96822;-27
2023/10/04 11:08:47;;;;;;;7.07;1.67;;;;;;;18.09;72.89;102716.72;4995993;28;99886;-28
2023/10/04 11:11:13;;;;;;;3.60;1.25;;;;;;;18.04;72.94;102719.75;4995528;28;100996;-27
2023/10/04 11:13:43;;;;;;;2.00;1.02;;;;;;;18.05;73.10;102720.63;4995613;28;96619;-27
2023/10/04 11:16:08;;;;;;;5.65;1.35;;;;;;;18.01;73.58;102713.56;4995475;28;96789;-29
2023/10/04 11:18:35;;;;;;;7.13;1.85;;;;;;;18.03;72.69;102706.13;4996339;28;98133;-28
2023/10/04 11:21:04;;;;;;;3.20;1.00;;;;;;;18.01;73.62;102710.84;4996323;28;99774;-27
2023/10/04 11:23:30;;;;;;;3.47;1.35;;;;;;;17.98;71.54;102708.28;4995473;28;96732;-28
2023/10/04 11:25:58;;;;;;;1.67;0.70;;;;;;;17.93;71.77;102705.84;4995331;28;96842;-27
2023/10/04 11:28:25;;;;;;;4.03;0.60;;;;;;;17.88;71.14;102709.84;4995045;28;101316;-27
2023/10/04 11:30:50;;;;;;;2.90;0.60;;;;;;;17.86;71.94;102698.09;4995155;28;101292;-28
2023/10/04 11:33:16;;;;;;;1.98;0.57;;;;;;;18.03;71.27;102700.66;4996588;28;96650;-27
2023/10/04 11:35:43;;;;;;;2.42;0.45;;;;;;;18.15;71.38;102705.34;4995660;28;96774;-27